ADDS TAF Board (Experimental) INFO Settings
IDs: Format: Expanded Condensed

KSEA - Seattle-Tacoma Intl, WA, US

Issued at 0300 UTC 23 May 2015
Updated at: 0545 UTC 23 May 2015
Time0453Z 23/06Z 23/07Z 23/08Z 23/09Z 23/10Z 23/11Z 23/12Z 23/13Z 23/14Z 23/15Z 23/16Z 23/17Z 23/18Z
Type OBS PRVL PRVL PRVL PRVL PRVL PRVL PRVL PRVL PRVL PRVL PRVL PRVL PRVL
VIS 10 >6 >6 >6 >6 >6 >6 >6 >6 >6 >6 >6 >6 >6
CIG 17 22 22 22 12 12 12 12 12 12 12 12 12 12
Cover OVC OVC OVC OVC OVC OVC OVC OVC OVC OVC OVC OVC OVC OVC
FltCat MVFR MVFR MVFR MVFR MVFR MVFR MVFR MVFR MVFR MVFR MVFR MVFR MVFR MVFR
WX -- -- -- -- -- -- -- -- -- -- -- -- -- --
WDir 200 200 200 200 200 200 200 200 200 200 200 200 200 200
WSpd 6 6 6 6 6 6 6 6 6 6 6 6 6 6
WGst -- -- -- -- -- -- -- -- -- -- -- -- -- --
R16/34
XWnd -2 -2 -2 -2 -2 -2 -2 -2 -2 -2 -2 -2 -2 -2
HWnd 6 6 6 6 6 6 6 6 6 6 6 6 6 6

NOTE: TEMPO conditions in [brackets]. Keep in mind TEMPO conditions might be better (lower impact) than prevailing conditions.

Raw TAF
KSEA 230300Z 2303/2406 22007KT P6SM VCSH BKN021 BKN120
  FM230400 20006KT P6SM OVC022
  FM230900 20006KT P6SM OVC012
  FM232000 24007KT P6SM BKN028 BKN110 BKN250
  FM232100 24007KT P6SM BKN035 BKN110 BKN250


Raw METAR
KSEA 230453Z 20006KT 10SM OVC017 13/09 A3007 RMK AO2 SLP187 T01280094
KSEA 230353Z 22007KT 10SM OVC017 13/09 A3004 RMK AO2 SLP178 T01280094
KSEA 230253Z 22007KT 10SM BKN021 BKN120 14/10 A3003 RMK AO2 SLP177 T01390100 51005

METAR Board
Radar Display
Forecast Discussion

TAF Board Legend

Potential Impact
Threat None Slight Moderate High
Visibility (sm) ≥5.1 5.1>X≥3 3>X≥1 <1
Ceiling (100 ft) ≥30.1 30.1>X≥10 10>X≥5 <5
Wind Speed (kt) <10 10≤X<20 20≤X<30 ≥30
Wind Gust (kt) <15 15≤X<25 25≤X<35 ≥35
Weather No Wx Reported VCTS,-TS,-FZRA,SN TS,FZRA +TS,+FZRA,+SN